London Express — DPLE — position and weather

sailwx.info

Track history (hours):
 
Tides and Currents Weather Stations Pressure Air Temp Water Temp Dewpoint Dewpoint Depression Visibility Wind Speed Wind Dir Waves Ship Positions

London Express

Last reported at 2016-Jun-30 04:33 UTC. Time now 2016-Jun-30 05:12 UTC.
Position N 39°11' E 009°05'.

Length 294 m; beam 32.3 m; draft 13.6 m.

Type: Ship. MMSI: 211262630.

Date/timePositionNaut miles runAvg speedWind from/ knotsBaromVisibWave heightAir tempDewpointWater temp
2016-Jun-30 04:33N 39°11' E 009°05'0 0.1
2016-Jun-30 03:33N 39°11' E 009°06'0 0.1
2016-Jun-30 02:33N 39°11' E 009°06'0 0.2
2016-Jun-30 01:32N 39°11' E 009°06'0 0.1
2016-Jun-30 00:32N 39°10' E 009°06'4 8.3
2016-Jun-30 00:00N 39°06' E 009°06'5 9.7 330 / 51014.110.8 22.117.923.0
2016-Jun-29 23:31N 39°11' E 009°06'0 0.1
2016-Jun-29 22:31N 39°11' E 009°06'0 0.1
2016-Jun-29 21:30N 39°11' E 009°06'0 0.0
2016-Jun-29 20:33N 39°11' E 009°06'0 0.0
2016-Jun-29 19:33N 39°11' E 009°06'0 0.1
2016-Jun-29 18:32N 39°11' E 009°06'0 0.0
2016-Jun-29 17:32N 39°11' E 009°06'0 0.0
2016-Jun-29 16:31N 39°11' E 009°06'0 0.0
2016-Jun-29 15:31N 39°11' E 009°06'0 0.0
2016-Jun-29 14:33N 39°11' E 009°06'0 0.0
2016-Jun-29 13:30N 39°11' E 009°06'0 0.0
2016-Jun-29 12:33N 39°11' E 009°06'0 0.2
2016-Jun-29 11:33N 39°10' E 009°05'8 8.3
2016-Jun-29 10:33N 39°05' E 009°13'1514.8
2016-Jun-29 09:33N 38°58' E 009°30'7 7.0
2016-Jun-29 08:31N 38°57' E 009°39'5714.5
2016-Jun-29 04:33N 39°52' E 010°04'1615.7
2016-Jun-29 03:33N 40°07' E 010°05'1715.8
2016-Jun-29 02:28N 40°24' E 010°09'5115.1
2016-Jun-28 23:04N 41°15' E 010°15'713.1
2016-Jun-28 22:33N 41°22' E 010°17'1312.8
2016-Jun-28 21:32N 41°35' E 010°20'2912.6
2016-Jun-28 19:13N 42°04' E 010°26'812.4
2016-Jun-28 18:33N 42°12' E 010°28'1211.9
2016-Jun-28 17:33N 42°24' E 010°30'1211.7
2016-Jun-28 16:31N 42°36' E 010°32'1111.7
2016-Jun-28 15:33N 42°47' E 010°34'9 8.8
2016-Jun-28 14:33N 42°56' E 010°34'1 0.8
2016-Jun-28 13:27N 42°56' E 010°33'0 0.0
2016-Jun-28 12:27N 42°56' E 010°33'0 0.0
2016-Jun-28 11:32N 42°56' E 010°33'0 0.0
2016-Jun-28 10:20N 42°56' E 010°33'0 0.0
2016-Jun-28 09:31N 42°56' E 010°33'0 0.0
2016-Jun-27 13:23N 42°56' E 010°33'0 0.0
2016-Jun-26 21:28N 42°56' E 010°33'0 0.0
2016-Jun-26 20:33N 42°56' E 010°33'0 0.0
2016-Jun-26 19:33N 42°56' E 010°33'0 0.0
2016-Jun-26 17:14N 42°56' E 010°33'0 0.0
2016-Jun-26 16:20N 42°56' E 010°33'0 0.0
2016-Jun-26 15:31N 42°56' E 010°33'0 0.0
2016-Jun-26 14:31N 42°56' E 010°33'0 0.0
2016-Jun-25 18:22N 42°56' E 010°33'0 0.0
2016-Jun-25 14:26N 42°56' E 010°33'0 0.0
2016-Jun-25 13:20N 42°56' E 010°33'0 0.0
2016-Jun-25 12:26N 42°56' E 010°33'0 0.0
2016-Jun-25 11:31N 42°56' E 010°33'0 0.0
2016-Jun-25 10:28N 42°56' E 010°33'0 0.0
2016-Jun-25 09:33N 42°56' E 010°33'0 0.0
2016-Jun-25 08:27N 42°56' E 010°33'0 0.0
2016-Jun-25 06:29N 42°56' E 010°33'0 0.0
2016-Jun-25 05:29N 42°56' E 010°33'0 0.0
2016-Jun-25 04:22N 42°56' E 010°33'0 0.0
2016-Jun-25 03:28N 42°56' E 010°33'0 0.0
2016-Jun-25 02:21N 42°56' E 010°33'0 0.0
2016-Jun-25 00:26N 42°56' E 010°33'0 0.0
2016-Jun-24 21:07N 42°56' E 010°33'0 0.0
2016-Jun-24 20:31N 42°56' E 010°33'0 0.0
2016-Jun-24 19:30N 42°56' E 010°33'0 0.0
2016-Jun-24 18:18N 42°56' E 010°33'0 0.0
2016-Jun-24 13:22N 42°56' E 010°33'0 0.0
2016-Jun-24 12:21N 42°56' E 010°33'0 0.0
2016-Jun-24 11:33N 42°56' E 010°33'0 0.0
2016-Jun-24 08:31N 42°56' E 010°33'0 0.0
2016-Jun-24 07:25N 42°56' E 010°33'0 0.0
2016-Jun-24 06:28N 42°56' E 010°33'0 0.0
2016-Jun-24 04:27N 42°56' E 010°33'0 0.0
2016-Jun-24 03:29N 42°56' E 010°33'0 0.0
2016-Jun-24 02:23N 42°56' E 010°33'0 0.0
2016-Jun-24 01:28N 42°56' E 010°33'0 0.0
2016-Jun-23 23:06N 42°56' E 010°33'0 0.0
2016-Jun-23 22:30N 42°56' E 010°33'0 0.0
2016-Jun-23 13:33N 42°56' E 010°33'0 0.0
2016-Jun-23 12:26N 42°56' E 010°33'0 0.0
2016-Jun-23 11:29N 42°56' E 010°33'0 0.0
2016-Jun-23 10:25N 42°56' E 010°33'0 0.0
2016-Jun-23 09:31N 42°56' E 010°33'0 0.0
2016-Jun-23 08:28N 42°56' E 010°33'0 0.0
2016-Jun-23 07:33N 42°56' E 010°33'0 0.0
2016-Jun-23 05:20N 42°56' E 010°33'0 0.0
2016-Jun-23 04:32N 42°56' E 010°33'0 0.0
2016-Jun-23 01:31N 42°56' E 010°33'0 0.0
2016-Jun-22 15:05N 42°56' E 010°33'0 0.0
2016-Jun-22 14:14N 42°56' E 010°33'0 0.0
2016-Jun-22 13:29N 42°56' E 010°33'0 0.0
2016-Jun-22 07:29N 42°56' E 010°33'0 0.0
2016-Jun-22 05:22N 42°56' E 010°33'0 0.0
2016-Jun-22 04:31N 42°56' E 010°33'0 0.0
2016-Jun-22 03:31N 42°56' E 010°33'0 0.0
2016-Jun-22 02:33N 42°56' E 010°33'0 0.0
2016-Jun-22 01:33N 42°56' E 010°33'0 0.0
2016-Jun-22 00:32N 42°56' E 010°33'0 0.0
2016-Jun-21 23:32N 42°56' E 010°33'0 0.0
2016-Jun-21 22:31N 42°56' E 010°33'0 0.0
2016-Jun-21 21:31N 42°56' E 010°33'0 0.0
2016-Jun-21 20:31N 42°56' E 010°33'0 0.0
2016-Jun-21 19:30N 42°56' E 010°33'0 0.0
2016-Jun-21 18:30N 42°56' E 010°33'0 0.0
2016-Jun-21 17:32N 42°56' E 010°33'0 0.0
2016-Jun-21 16:29N 42°56' E 010°33'0 0.0
2016-Jun-21 15:22N 42°56' E 010°33'0 0.0
2016-Jun-21 14:28N 42°56' E 010°33'0 0.0
2016-Jun-21 13:33N 42°56' E 010°33'0 0.0
2016-Jun-21 12:27N 42°56' E 010°33'0 0.0
2016-Jun-21 11:24N 42°56' E 010°33'0 0.0
2016-Jun-21 10:32N 42°56' E 010°33'0 0.0
2016-Jun-21 09:32N 42°56' E 010°33'0 0.0
2016-Jun-21 08:31N 42°56' E 010°33'0 0.0
2016-Jun-21 07:31N 42°56' E 010°33'0 0.0
2016-Jun-21 06:27N 42°56' E 010°33'0 0.0
2016-Jun-21 04:18N 42°56' E 010°33'0 0.0
2016-Jun-21 01:31N 42°56' E 010°33'0 0.0
2016-Jun-20 22:15N 42°56' E 010°33'0 0.0
2016-Jun-20 21:20N 42°56' E 010°33'0 0.0
2016-Jun-20 20:32N 42°56' E 010°33'0 0.0
2016-Jun-20 19:32N 42°56' E 010°33'0 0.0
2016-Jun-20 17:31N 42°56' E 010°33'0 0.0
2016-Jun-20 16:30N 42°56' E 010°33'0 0.0
2016-Jun-20 15:30N 42°56' E 010°33'0 0.0
2016-Jun-20 14:30N 42°56' E 010°33'0 0.0
2016-Jun-20 12:23N 42°56' E 010°33'0 0.0
2016-Jun-20 11:22N 42°56' E 010°33'0 0.0
2016-Jun-20 10:22N 42°56' E 010°33'0 0.0
2016-Jun-20 09:21N 42°56' E 010°33'  
Track history (hours):
 
Tides and Currents Weather Stations Pressure Air Temp Water Temp Dewpoint Dewpoint Depression Visibility Wind Speed Wind Dir Waves Ship Positions

London Express

Last reported at 2016-Jun-30 04:33 UTC. Time now 2016-Jun-30 05:12 UTC.
Position N 39°11' E 009°05'.

Length 294 m; beam 32.3 m; draft 13.6 m.

Type: Ship. MMSI: 211262630.

Date/timePositionNaut miles runAvg speedWind from/ knotsBaromVisibWave heightAir tempDewpointWater temp
2016-Jun-30 04:33N 39°11' E 009°05'0 0.1
2016-Jun-30 03:33N 39°11' E 009°06'0 0.1
2016-Jun-30 02:33N 39°11' E 009°06'0 0.2
2016-Jun-30 01:32N 39°11' E 009°06'0 0.1
2016-Jun-30 00:32N 39°10' E 009°06'4 8.3
2016-Jun-30 00:00N 39°06' E 009°06'5 9.7 330 / 51014.110.8 22.117.923.0
2016-Jun-29 23:31N 39°11' E 009°06'0 0.1
2016-Jun-29 22:31N 39°11' E 009°06'0 0.1
2016-Jun-29 21:30N 39°11' E 009°06'0 0.0
2016-Jun-29 20:33N 39°11' E 009°06'0 0.0
2016-Jun-29 19:33N 39°11' E 009°06'0 0.1
2016-Jun-29 18:32N 39°11' E 009°06'0 0.0
2016-Jun-29 17:32N 39°11' E 009°06'0 0.0
2016-Jun-29 16:31N 39°11' E 009°06'0 0.0
2016-Jun-29 15:31N 39°11' E 009°06'0 0.0
2016-Jun-29 14:33N 39°11' E 009°06'0 0.0
2016-Jun-29 13:30N 39°11' E 009°06'0 0.0
2016-Jun-29 12:33N 39°11' E 009°06'0 0.2
2016-Jun-29 11:33N 39°10' E 009°05'8 8.3
2016-Jun-29 10:33N 39°05' E 009°13'1514.8
2016-Jun-29 09:33N 38°58' E 009°30'7 7.0
2016-Jun-29 08:31N 38°57' E 009°39'5714.5
2016-Jun-29 04:33N 39°52' E 010°04'1615.7
2016-Jun-29 03:33N 40°07' E 010°05'1715.8
2016-Jun-29 02:28N 40°24' E 010°09'5115.1
2016-Jun-28 23:04N 41°15' E 010°15'713.1
2016-Jun-28 22:33N 41°22' E 010°17'1312.8
2016-Jun-28 21:32N 41°35' E 010°20'2912.6
2016-Jun-28 19:13N 42°04' E 010°26'812.4
2016-Jun-28 18:33N 42°12' E 010°28'1211.9
2016-Jun-28 17:33N 42°24' E 010°30'1211.7
2016-Jun-28 16:31N 42°36' E 010°32'1111.7
2016-Jun-28 15:33N 42°47' E 010°34'9 8.8
2016-Jun-28 14:33N 42°56' E 010°34'1 0.8
2016-Jun-28 13:27N 42°56' E 010°33'0 0.0
2016-Jun-28 12:27N 42°56' E 010°33'0 0.0
2016-Jun-28 11:32N 42°56' E 010°33'0 0.0
2016-Jun-28 10:20N 42°56' E 010°33'0 0.0
2016-Jun-28 09:31N 42°56' E 010°33'0 0.0
2016-Jun-27 13:23N 42°56' E 010°33'0 0.0
2016-Jun-26 21:28N 42°56' E 010°33'0 0.0
2016-Jun-26 20:33N 42°56' E 010°33'0 0.0
2016-Jun-26 19:33N 42°56' E 010°33'0 0.0
2016-Jun-26 17:14N 42°56' E 010°33'0 0.0
2016-Jun-26 16:20N 42°56' E 010°33'0 0.0
2016-Jun-26 15:31N 42°56' E 010°33'0 0.0
2016-Jun-26 14:31N 42°56' E 010°33'0 0.0
2016-Jun-25 18:22N 42°56' E 010°33'0 0.0
2016-Jun-25 14:26N 42°56' E 010°33'0 0.0
2016-Jun-25 13:20N 42°56' E 010°33'0 0.0
2016-Jun-25 12:26N 42°56' E 010°33'0 0.0
2016-Jun-25 11:31N 42°56' E 010°33'0 0.0
2016-Jun-25 10:28N 42°56' E 010°33'0 0.0
2016-Jun-25 09:33N 42°56' E 010°33'0 0.0
2016-Jun-25 08:27N 42°56' E 010°33'0 0.0
2016-Jun-25 06:29N 42°56' E 010°33'0 0.0
2016-Jun-25 05:29N 42°56' E 010°33'0 0.0
2016-Jun-25 04:22N 42°56' E 010°33'0 0.0
2016-Jun-25 03:28N 42°56' E 010°33'0 0.0
2016-Jun-25 02:21N 42°56' E 010°33'0 0.0
2016-Jun-25 00:26N 42°56' E 010°33'0 0.0
2016-Jun-24 21:07N 42°56' E 010°33'0 0.0
2016-Jun-24 20:31N 42°56' E 010°33'0 0.0
2016-Jun-24 19:30N 42°56' E 010°33'0 0.0
2016-Jun-24 18:18N 42°56' E 010°33'0 0.0
2016-Jun-24 13:22N 42°56' E 010°33'0 0.0
2016-Jun-24 12:21N 42°56' E 010°33'0 0.0
2016-Jun-24 11:33N 42°56' E 010°33'0 0.0
2016-Jun-24 08:31N 42°56' E 010°33'0 0.0
2016-Jun-24 07:25N 42°56' E 010°33'0 0.0
2016-Jun-24 06:28N 42°56' E 010°33'0 0.0
2016-Jun-24 04:27N 42°56' E 010°33'0 0.0
2016-Jun-24 03:29N 42°56' E 010°33'0 0.0
2016-Jun-24 02:23N 42°56' E 010°33'0 0.0
2016-Jun-24 01:28N 42°56' E 010°33'0 0.0
2016-Jun-23 23:06N 42°56' E 010°33'0 0.0
2016-Jun-23 22:30N 42°56' E 010°33'0 0.0
2016-Jun-23 13:33N 42°56' E 010°33'0 0.0
2016-Jun-23 12:26N 42°56' E 010°33'0 0.0
2016-Jun-23 11:29N 42°56' E 010°33'0 0.0
2016-Jun-23 10:25N 42°56' E 010°33'0 0.0
2016-Jun-23 09:31N 42°56' E 010°33'0 0.0
2016-Jun-23 08:28N 42°56' E 010°33'0 0.0
2016-Jun-23 07:33N 42°56' E 010°33'0 0.0
2016-Jun-23 05:20N 42°56' E 010°33'0 0.0
2016-Jun-23 04:32N 42°56' E 010°33'0 0.0
2016-Jun-23 01:31N 42°56' E 010°33'0 0.0
2016-Jun-22 15:05N 42°56' E 010°33'0 0.0
2016-Jun-22 14:14N 42°56' E 010°33'0 0.0
2016-Jun-22 13:29N 42°56' E 010°33'0 0.0
2016-Jun-22 07:29N 42°56' E 010°33'0 0.0
2016-Jun-22 05:22N 42°56' E 010°33'0 0.0
2016-Jun-22 04:31N 42°56' E 010°33'0 0.0
2016-Jun-22 03:31N 42°56' E 010°33'0 0.0
2016-Jun-22 02:33N 42°56' E 010°33'0 0.0
2016-Jun-22 01:33N 42°56' E 010°33'0 0.0
2016-Jun-22 00:32N 42°56' E 010°33'0 0.0
2016-Jun-21 23:32N 42°56' E 010°33'0 0.0
2016-Jun-21 22:31N 42°56' E 010°33'0 0.0
2016-Jun-21 21:31N 42°56' E 010°33'0 0.0
2016-Jun-21 20:31N 42°56' E 010°33'0 0.0
2016-Jun-21 19:30N 42°56' E 010°33'0 0.0
2016-Jun-21 18:30N 42°56' E 010°33'0 0.0
2016-Jun-21 17:32N 42°56' E 010°33'0 0.0
2016-Jun-21 16:29N 42°56' E 010°33'0 0.0
2016-Jun-21 15:22N 42°56' E 010°33'0 0.0
2016-Jun-21 14:28N 42°56' E 010°33'0 0.0
2016-Jun-21 13:33N 42°56' E 010°33'0 0.0
2016-Jun-21 12:27N 42°56' E 010°33'0 0.0
2016-Jun-21 11:24N 42°56' E 010°33'0 0.0
2016-Jun-21 10:32N 42°56' E 010°33'0 0.0
2016-Jun-21 09:32N 42°56' E 010°33'0 0.0
2016-Jun-21 08:31N 42°56' E 010°33'0 0.0
2016-Jun-21 07:31N 42°56' E 010°33'0 0.0
2016-Jun-21 06:27N 42°56' E 010°33'0 0.0
2016-Jun-21 04:18N 42°56' E 010°33'0 0.0
2016-Jun-21 01:31N 42°56' E 010°33'0 0.0
2016-Jun-20 22:15N 42°56' E 010°33'0 0.0
2016-Jun-20 21:20N 42°56' E 010°33'0 0.0
2016-Jun-20 20:32N 42°56' E 010°33'0 0.0
2016-Jun-20 19:32N 42°56' E 010°33'0 0.0
2016-Jun-20 17:31N 42°56' E 010°33'0 0.0
2016-Jun-20 16:30N 42°56' E 010°33'0 0.0
2016-Jun-20 15:30N 42°56' E 010°33'0 0.0
2016-Jun-20 14:30N 42°56' E 010°33'0 0.0
2016-Jun-20 12:23N 42°56' E 010°33'0 0.0
2016-Jun-20 11:22N 42°56' E 010°33'0 0.0
2016-Jun-20 10:22N 42°56' E 010°33'0 0.0
2016-Jun-20 09:21N 42°56' E 010°33'  

Dump ship's entire track history